sensor_id;sensor_type;location;lat;lon;timestamp;pressure;altitude;pressure_sealevel;temperature;humidity
21728;BME280;11026;50.560;17.852;2023-07-28T00:01:03;98696.38;;;17.59;74.70
21728;BME280;11026;50.560;17.852;2023-07-28T00:03:30;98697.72;;;17.44;75.99
21728;BME280;11026;50.560;17.852;2023-07-28T00:05:57;98692.16;;;17.36;77.35
21728;BME280;11026;50.560;17.852;2023-07-28T00:08:24;98685.63;;;17.50;76.01
21728;BME280;11026;50.560;17.852;2023-07-28T00:10:53;98672.81;;;17.43;74.50
21728;BME280;11026;50.560;17.852;2023-07-28T00:13:20;98676.16;;;17.45;74.94
21728;BME280;11026;50.560;17.852;2023-07-28T00:15:48;98674.63;;;17.43;74.53
21728;BME280;11026;50.560;17.852;2023-07-28T00:18:15;98673.78;;;17.42;74.87
21728;BME280;11026;50.560;17.852;2023-07-28T00:20:43;98677.41;;;17.41;74.91
21728;BME280;11026;50.560;17.852;2023-07-28T00:23:11;98683.75;;;17.40;75.62
21728;BME280;11026;50.560;17.852;2023-07-28T00:25:39;98677.81;;;17.37;76.18
21728;BME280;11026;50.560;17.852;2023-07-28T00:28:07;98686.41;;;17.40;76.35
21728;BME280;11026;50.560;17.852;2023-07-28T00:30:34;98688.84;;;17.23;77.58
21728;BME280;11026;50.560;17.852;2023-07-28T00:33:02;98686.22;;;17.32;78.12
21728;BME280;11026;50.560;17.852;2023-07-28T00:35:30;98678.66;;;17.37;77.61
21728;BME280;11026;50.560;17.852;2023-07-28T00:38:04;98690.19;;;17.59;77.07
21728;BME280;11026;50.560;17.852;2023-07-28T00:40:31;98676.84;;;17.59;76.96
21728;BME280;11026;50.560;17.852;2023-07-28T00:43:00;98676.84;;;17.59;77.53
21728;BME280;11026;50.560;17.852;2023-07-28T00:45:29;98666.84;;;17.61;77.57
21728;BME280;11026;50.560;17.852;2023-07-28T00:47:58;98676.44;;;17.63;78.15
21728;BME280;11026;50.560;17.852;2023-07-28T00:50:25;98669.97;;;17.66;78.92
21728;BME280;11026;50.560;17.852;2023-07-28T00:52:55;98664.31;;;17.59;79.62
21728;BME280;11026;50.560;17.852;2023-07-28T00:55:23;98659.97;;;17.68;79.84
21728;BME280;11026;50.560;17.852;2023-07-28T00:57:50;98659.84;;;17.69;79.15
21728;BME280;11026;50.560;17.852;2023-07-28T01:00:18;98656.06;;;17.72;79.50
21728;BME280;11026;50.560;17.852;2023-07-28T01:02:45;98645.19;;;17.64;80.53
21728;BME280;11026;50.560;17.852;2023-07-28T01:05:14;98650.00;;;17.70;80.03
21728;BME280;11026;50.560;17.852;2023-07-28T01:07:51;98643.50;;;17.63;80.60
21728;BME280;11026;50.560;17.852;2023-07-28T01:10:31;98635.91;;;17.68;79.38
21728;BME280;11026;50.560;17.852;2023-07-28T01:13:00;98631.59;;;17.77;80.25
21728;BME280;11026;50.560;17.852;2023-07-28T01:15:28;98628.88;;;17.67;80.60
21728;BME280;11026;50.560;17.852;2023-07-28T01:17:55;98623.78;;;17.64;80.62
21728;BME280;11026;50.560;17.852;2023-07-28T01:20:30;98627.44;;;17.63;80.56
21728;BME280;11026;50.560;17.852;2023-07-28T01:23:39;98629.94;;;17.55;80.47
21728;BME280;11026;50.560;17.852;2023-07-28T01:26:10;98647.09;;;17.52;79.65
21728;BME280;11026;50.560;17.852;2023-07-28T01:28:42;98631.63;;;17.56;79.19
21728;BME280;11026;50.560;17.852;2023-07-28T01:31:10;98641.34;;;17.57;79.06
21728;BME280;11026;50.560;17.852;2023-07-28T01:33:40;98630.78;;;17.55;78.05
21728;BME280;11026;50.560;17.852;2023-07-28T01:36:08;98638.66;;;17.57;78.14
21728;BME280;11026;50.560;17.852;2023-07-28T01:38:36;98634.56;;;17.53;78.10
21728;BME280;11026;50.560;17.852;2023-07-28T01:41:04;98632.16;;;17.50;78.08
21728;BME280;11026;50.560;17.852;2023-07-28T01:43:33;98630.34;;;17.50;78.13
21728;BME280;11026;50.560;17.852;2023-07-28T01:46:00;98631.47;;;17.48;78.51
21728;BME280;11026;50.560;17.852;2023-07-28T01:48:28;98616.41;;;17.47;79.07
21728;BME280;11026;50.560;17.852;2023-07-28T01:50:56;98613.00;;;17.44;78.65
21728;BME280;11026;50.560;17.852;2023-07-28T01:53:24;98609.34;;;17.45;79.41
21728;BME280;11026;50.560;17.852;2023-07-28T01:55:51;98609.34;;;17.45;78.55
21728;BME280;11026;50.560;17.852;2023-07-28T01:58:18;98608.63;;;17.43;78.76
21728;BME280;11026;50.560;17.852;2023-07-28T02:00:46;98607.41;;;17.48;79.39
21728;BME280;11026;50.560;17.852;2023-07-28T02:03:13;98601.78;;;17.51;79.09
21728;BME280;11026;50.560;17.852;2023-07-28T02:05:41;98605.72;;;17.47;78.98
21728;BME280;11026;50.560;17.852;2023-07-28T02:08:08;98614.00;;;17.43;79.63
21728;BME280;11026;50.560;17.852;2023-07-28T02:10:36;98607.66;;;17.44;79.80
21728;BME280;11026;50.560;17.852;2023-07-28T02:13:04;98597.81;;;17.45;79.86
21728;BME280;11026;50.560;17.852;2023-07-28T02:15:32;98607.66;;;17.44;80.47
21728;BME280;11026;50.560;17.852;2023-07-28T02:17:59;98605.38;;;17.40;80.72
21728;BME280;11026;50.560;17.852;2023-07-28T02:20:29;98595.09;;;17.35;81.31
21728;BME280;11026;50.560;17.852;2023-07-28T02:22:57;98595.09;;;17.35;81.67
21728;BME280;11026;50.560;17.852;2023-07-28T02:25:25;98595.94;;;17.36;81.89
21728;BME280;11026;50.560;17.852;2023-07-28T02:27:52;98598.22;;;17.40;81.11
21728;BME280;11026;50.560;17.852;2023-07-28T02:30:19;98593.59;;;17.42;81.62
21728;BME280;11026;50.560;17.852;2023-07-28T02:32:47;98591.47;;;17.46;81.46
21728;BME280;11026;50.560;17.852;2023-07-28T02:35:14;98585.16;;;17.47;81.54
21728;BME280;11026;50.560;17.852;2023-07-28T02:37:45;98593.03;;;17.49;81.56
21728;BME280;11026;50.560;17.852;2023-07-28T02:40:12;98587.44;;;17.52;81.23
21728;BME280;11026;50.560;17.852;2023-07-28T02:42:40;98590.94;;;17.52;81.53
21728;BME280;11026;50.560;17.852;2023-07-28T02:45:09;98592.50;;;17.55;81.01
21728;BME280;11026;50.560;17.852;2023-07-28T02:47:37;98596.28;;;17.52;81.18
21728;BME280;11026;50.560;17.852;2023-07-28T02:50:05;98605.13;;;17.43;81.92
21728;BME280;11026;50.560;17.852;2023-07-28T02:52:33;98604.97;;;17.44;82.05
21728;BME280;11026;50.560;17.852;2023-07-28T02:55:01;98596.25;;;17.42;82.13
21728;BME280;11026;50.560;17.852;2023-07-28T02:57:29;98591.28;;;17.38;82.86
21728;BME280;11026;50.560;17.852;2023-07-28T02:59:57;98590.44;;;17.37;82.88
21728;BME280;11026;50.560;17.852;2023-07-28T03:02:25;98593.13;;;17.37;83.37
21728;BME280;11026;50.560;17.852;2023-07-28T03:04:53;98584.41;;;17.35;83.40
21728;BME280;11026;50.560;17.852;2023-07-28T03:07:21;98586.09;;;17.36;83.41
21728;BME280;11026;50.560;17.852;2023-07-28T03:09:48;98578.31;;;17.33;83.82
21728;BME280;11026;50.560;17.852;2023-07-28T03:12:16;98581.72;;;17.35;83.69
21728;BME280;11026;50.560;17.852;2023-07-28T03:14:44;98580.41;;;17.30;84.27
21728;BME280;11026;50.560;17.852;2023-07-28T03:17:13;98587.41;;;17.21;84.71
21728;BME280;11026;50.560;17.852;2023-07-28T03:19:41;98583.56;;;17.14;85.40
21728;BME280;11026;50.560;17.852;2023-07-28T03:22:09;98584.81;;;17.10;86.15
21728;BME280;11026;50.560;17.852;2023-07-28T03:24:37;98584.16;;;17.17;86.39
21728;BME280;11026;50.560;17.852;2023-07-28T03:27:05;98577.56;;;17.21;86.56
21728;BME280;11026;50.560;17.852;2023-07-28T03:29:34;98575.56;;;17.14;86.39
21728;BME280;11026;50.560;17.852;2023-07-28T03:32:01;98569.84;;;17.18;86.54
21728;BME280;11026;50.560;17.852;2023-07-28T03:34:29;98572.63;;;17.17;86.84
21728;BME280;11026;50.560;17.852;2023-07-28T03:36:56;98574.00;;;17.11;87.40
21728;BME280;11026;50.560;17.852;2023-07-28T03:39:24;98574.00;;;17.11;87.72
21728;BME280;11026;50.560;17.852;2023-07-28T03:41:53;98570.09;;;17.15;87.30
21728;BME280;11026;50.560;17.852;2023-07-28T03:44:20;98563.03;;;17.14;87.80
21728;BME280;11026;50.560;17.852;2023-07-28T03:46:50;98570.22;;;17.14;87.64
21728;BME280;11026;50.560;17.852;2023-07-28T03:49:17;98573.34;;;17.19;87.76
21728;BME280;11026;50.560;17.852;2023-07-28T03:51:45;98559.53;;;17.14;87.73
21728;BME280;11026;50.560;17.852;2023-07-28T03:54:13;98567.72;;;17.22;87.80
21728;BME280;11026;50.560;17.852;2023-07-28T03:56:41;98574.31;;;17.18;87.59
21728;BME280;11026;50.560;17.852;2023-07-28T03:59:12;98570.88;;;17.27;87.38
21728;BME280;11026;50.560;17.852;2023-07-28T04:01:41;98562.84;;;17.27;87.98
21728;BME280;11026;50.560;17.852;2023-07-28T04:04:08;98560.88;;;17.29;87.41
21728;BME280;11026;50.560;17.852;2023-07-28T04:06:44;98562.56;;;17.30;87.86
21728;BME280;11026;50.560;17.852;2023-07-28T04:09:14;98564.28;;;17.31;87.19
21728;BME280;11026;50.560;17.852;2023-07-28T04:11:42;98564.28;;;17.31;87.24
21728;BME280;11026;50.560;17.852;2023-07-28T04:14:11;98564.69;;;17.27;86.88
21728;BME280;11026;50.560;17.852;2023-07-28T04:16:38;98566.22;;;17.29;86.86
21728;BME280;11026;50.560;17.852;2023-07-28T04:19:12;98563.09;;;17.24;87.09
21728;BME280;11026;50.560;17.852;2023-07-28T04:21:39;98563.81;;;17.26;87.14
21728;BME280;11026;50.560;17.852;2023-07-28T04:24:09;98565.03;;;17.22;87.31
21728;BME280;11026;50.560;17.852;2023-07-28T04:26:42;98557.03;;;17.22;87.53
21728;BME280;11026;50.560;17.852;2023-07-28T04:29:10;98563.38;;;17.21;87.87
21728;BME280;11026;50.560;17.852;2023-07-28T04:31:37;98561.69;;;17.20;88.25
21728;BME280;11026;50.560;17.852;2023-07-28T04:34:05;98563.38;;;17.21;88.24
21728;BME280;11026;50.560;17.852;2023-07-28T04:36:33;98557.03;;;17.22;88.63
21728;BME280;11026;50.560;17.852;2023-07-28T04:39:03;98565.50;;;17.27;88.62
21728;BME280;11026;50.560;17.852;2023-07-28T04:41:31;98556.78;;;17.25;88.90
21728;BME280;11026;50.560;17.852;2023-07-28T04:43:59;98549.34;;;17.29;89.14
21728;BME280;11026;50.560;17.852;2023-07-28T04:46:27;98545.09;;;17.26;88.62
21728;BME280;11026;50.560;17.852;2023-07-28T04:48:54;98541.72;;;17.24;89.40
21728;BME280;11026;50.560;17.852;2023-07-28T04:51:22;98545.56;;;17.31;90.35
21728;BME280;11026;50.560;17.852;2023-07-28T04:53:50;98541.63;;;17.35;90.27
21728;BME280;11026;50.560;17.852;2023-07-28T04:56:19;98549.34;;;17.29;90.70
21728;BME280;11026;50.560;17.852;2023-07-28T04:58:46;98548.50;;;17.28;92.03
21728;BME280;11026;50.560;17.852;2023-07-28T05:01:15;98553.84;;;17.28;92.65
21728;BME280;11026;50.560;17.852;2023-07-28T05:03:42;98550.66;;;17.13;94.40
21728;BME280;11026;50.560;17.852;2023-07-28T05:06:10;98563.59;;;17.08;95.56
21728;BME280;11026;50.560;17.852;2023-07-28T05:08:37;98556.81;;;17.04;97.30
21728;BME280;11026;50.560;17.852;2023-07-28T05:11:05;98564.69;;;17.06;98.36
21728;BME280;11026;50.560;17.852;2023-07-28T05:13:32;98562.66;;;16.98;99.46
21728;BME280;11026;50.560;17.852;2023-07-28T05:16:00;98559.56;;;16.93;100.00
21728;BME280;11026;50.560;17.852;2023-07-28T05:18:27;98560.66;;;16.90;100.00
21728;BME280;11026;50.560;17.852;2023-07-28T05:20:54;98571.88;;;16.84;100.00
21728;BME280;11026;50.560;17.852;2023-07-28T05:23:22;98566.53;;;16.84;100.00
21728;BME280;11026;50.560;17.852;2023-07-28T05:25:49;98559.03;;;16.78;100.00
21728;BME280;11026;50.560;17.852;2023-07-28T05:28:16;98561.97;;;16.75;100.00
21728;BME280;11026;50.560;17.852;2023-07-28T05:30:44;98567.19;;;16.65;100.00
21728;BME280;11026;50.560;17.852;2023-07-28T05:33:13;98570.25;;;16.61;100.00
21728;BME280;11026;50.560;17.852;2023-07-28T05:35:41;98559.72;;;16.59;100.00
21728;BME280;11026;50.560;17.852;2023-07-28T05:38:08;98569.47;;;16.49;100.00
21728;BME280;11026;50.560;17.852;2023-07-28T05:40:36;98566.44;;;16.42;100.00
21728;BME280;11026;50.560;17.852;2023-07-28T05:43:05;98578.09;;;16.41;100.00
21728;BME280;11026;50.560;17.852;2023-07-28T05:45:33;98578.34;;;16.38;100.00
21728;BME280;11026;50.560;17.852;2023-07-28T05:48:00;98574.25;;;16.34;100.00
21728;BME280;11026;50.560;17.852;2023-07-28T05:50:29;98571.97;;;16.30;100.00
21728;BME280;11026;50.560;17.852;2023-07-28T05:52:57;98571.97;;;16.30;100.00
21728;BME280;11026;50.560;17.852;2023-07-28T05:55:24;98569.69;;;16.25;100.00
21728;BME280;11026;50.560;17.852;2023-07-28T05:57:54;98578.63;;;16.35;100.00
21728;BME280;11026;50.560;17.852;2023-07-28T06:00:22;98573.28;;;16.35;100.00
21728;BME280;11026;50.560;17.852;2023-07-28T06:02:49;98575.31;;;16.43;100.00
21728;BME280;11026;50.560;17.852;2023-07-28T06:05:17;98583.66;;;16.50;100.00
21728;BME280;11026;50.560;17.852;2023-07-28T06:07:45;98585.75;;;16.35;100.00
21728;BME280;11026;50.560;17.852;2023-07-28T06:10:24;98599.00;;;16.36;100.00
21728;BME280;11026;50.560;17.852;2023-07-28T06:12:52;98588.44;;;16.35;100.00
21728;BME280;11026;50.560;17.852;2023-07-28T06:15:19;98605.19;;;16.37;100.00
21728;BME280;11026;50.560;17.852;2023-07-28T06:17:48;98592.47;;;16.29;100.00
21728;BME280;11026;50.560;17.852;2023-07-28T06:20:15;98594.91;;;16.21;100.00
21728;BME280;11026;50.560;17.852;2023-07-28T06:22:44;98605.13;;;16.16;100.00
21728;BME280;11026;50.560;17.852;2023-07-28T06:25:11;98601.03;;;16.12;100.00
21728;BME280;11026;50.560;17.852;2023-07-28T06:27:38;98605.84;;;16.07;100.00
21728;BME280;11026;50.560;17.852;2023-07-28T06:30:06;98594.69;;;16.13;100.00
21728;BME280;11026;50.560;17.852;2023-07-28T06:32:36;98606.56;;;16.20;100.00
21728;BME280;11026;50.560;17.852;2023-07-28T06:35:04;98603.78;;;16.21;100.00
21728;BME280;11026;50.560;17.852;2023-07-28T06:37:33;98608.72;;;16.26;100.00
21728;BME280;11026;50.560;17.852;2023-07-28T06:40:00;98600.63;;;16.28;100.00
21728;BME280;11026;50.560;17.852;2023-07-28T06:42:27;98602.38;;;16.38;100.00
21728;BME280;11026;50.560;17.852;2023-07-28T06:45:01;98602.66;;;16.35;100.00
21728;BME280;11026;50.560;17.852;2023-07-28T06:47:29;98599.00;;;16.36;100.00
21728;BME280;11026;50.560;17.852;2023-07-28T06:49:58;98609.16;;;16.42;100.00
21728;BME280;11026;50.560;17.852;2023-07-28T06:52:26;98615.69;;;16.50;100.00
21728;BME280;11026;50.560;17.852;2023-07-28T06:54:53;98620.78;;;16.53;100.00
21728;BME280;11026;50.560;17.852;2023-07-28T06:57:21;98613.47;;;16.55;100.00
21728;BME280;11026;50.560;17.852;2023-07-28T06:59:50;98616.66;;;16.48;100.00
21728;BME280;11026;50.560;17.852;2023-07-28T07:02:18;98623.66;;;16.61;100.00
21728;BME280;11026;50.560;17.852;2023-07-28T07:04:46;98621.19;;;16.69;100.00
21728;BME280;11026;50.560;17.852;2023-07-28T07:07:13;98620.59;;;16.77;100.00
21728;BME280;11026;50.560;17.852;2023-07-28T07:09:41;98627.50;;;16.79;100.00
21728;BME280;11026;50.560;17.852;2023-07-28T07:12:09;98623.88;;;16.69;100.00
21728;BME280;11026;50.560;17.852;2023-07-28T07:14:36;98618.06;;;16.64;100.00
21728;BME280;11026;50.560;17.852;2023-07-28T07:17:06;98622.19;;;16.68;100.00
21728;BME280;11026;50.560;17.852;2023-07-28T07:19:34;98622.66;;;16.73;100.00
21728;BME280;11026;50.560;17.852;2023-07-28T07:22:01;98621.56;;;16.76;100.00
21728;BME280;11026;50.560;17.852;2023-07-28T07:24:29;98614.66;;;16.73;100.00
21728;BME280;11026;50.560;17.852;2023-07-28T07:26:57;98620.34;;;16.80;100.00
21728;BME280;11026;50.560;17.852;2023-07-28T07:29:24;98619.81;;;16.86;100.00
21728;BME280;11026;50.560;17.852;2023-07-28T07:31:53;98614.06;;;16.90;100.00
21728;BME280;11026;50.560;17.852;2023-07-28T07:34:25;98611.47;;;17.00;100.00
21728;BME280;11026;50.560;17.852;2023-07-28T07:36:52;98617.88;;;17.09;100.00
21728;BME280;11026;50.560;17.852;2023-07-28T07:39:25;98619.91;;;17.26;100.00
21728;BME280;11026;50.560;17.852;2023-07-28T07:41:53;98614.06;;;17.32;100.00
21728;BME280;11026;50.560;17.852;2023-07-28T07:44:20;98621.47;;;17.50;100.00
21728;BME280;11026;50.560;17.852;2023-07-28T07:46:49;98617.28;;;17.57;100.00
21728;BME280;11026;50.560;17.852;2023-07-28T07:49:16;98621.78;;;17.56;100.00
21728;BME280;11026;50.560;17.852;2023-07-28T07:51:45;98617.41;;;17.55;100.00
21728;BME280;11026;50.560;17.852;2023-07-28T07:54:13;98624.69;;;17.43;100.00
21728;BME280;11026;50.560;17.852;2023-07-28T07:56:42;98626.53;;;17.53;100.00
21728;BME280;11026;50.560;17.852;2023-07-28T07:59:10;98619.16;;;17.66;100.00
21728;BME280;11026;50.560;17.852;2023-07-28T08:01:37;98624.31;;;17.58;100.00
21728;BME280;11026;50.560;17.852;2023-07-28T08:04:05;98618.19;;;17.67;100.00
21728;BME280;11026;50.560;17.852;2023-07-28T08:06:32;98622.75;;;17.76;100.00
21728;BME280;11026;50.560;17.852;2023-07-28T08:09:00;98630.50;;;17.79;100.00
21728;BME280;11026;50.560;17.852;2023-07-28T08:11:28;98632.63;;;17.85;100.00
21728;BME280;11026;50.560;17.852;2023-07-28T08:14:01;98641.97;;;18.01;100.00
21728;BME280;11026;50.560;17.852;2023-07-28T08:16:29;98638.94;;;18.15;100.00
21728;BME280;11026;50.560;17.852;2023-07-28T08:18:57;98640.06;;;18.22;100.00
21728;BME280;11026;50.560;17.852;2023-07-28T08:21:26;98641.22;;;18.49;100.00
21728;BME280;11026;50.560;17.852;2023-07-28T08:23:54;98637.59;;;18.59;100.00
21728;BME280;11026;50.560;17.852;2023-07-28T08:26:21;98643.94;;;18.68;100.00
21728;BME280;11026;50.560;17.852;2023-07-28T08:28:55;98640.69;;;18.55;100.00
21728;BME280;11026;50.560;17.852;2023-07-28T08:31:24;98636.47;;;18.62;100.00
21728;BME280;11026;50.560;17.852;2023-07-28T08:33:51;98636.16;;;18.55;100.00
21728;BME280;11026;50.560;17.852;2023-07-28T08:36:19;98639.03;;;18.73;100.00
21728;BME280;11026;50.560;17.852;2023-07-28T08:38:48;98630.72;;;18.76;100.00
21728;BME280;11026;50.560;17.852;2023-07-28T08:41:15;98639.03;;;18.83;100.00
21728;BME280;11026;50.560;17.852;2023-07-28T08:43:43;98633.06;;;19.08;100.00
21728;BME280;11026;50.560;17.852;2023-07-28T08:46:11;98647.44;;;19.27;100.00
21728;BME280;11026;50.560;17.852;2023-07-28T08:48:39;98651.81;;;19.37;100.00
21728;BME280;11026;50.560;17.852;2023-07-28T08:51:06;98645.41;;;19.58;100.00
21728;BME280;11026;50.560;17.852;2023-07-28T08:53:36;98644.81;;;19.74;100.00
21728;BME280;11026;50.560;17.852;2023-07-28T08:56:06;98635.91;;;19.73;100.00
21728;BME280;11026;50.560;17.852;2023-07-28T08:58:33;98645.56;;;19.94;100.00
21728;BME280;11026;50.560;17.852;2023-07-28T09:01:02;98636.22;;;19.98;100.00
21728;BME280;11026;50.560;17.852;2023-07-28T09:03:29;98647.16;;;19.86;100.00
21728;BME280;11026;50.560;17.852;2023-07-28T09:06:03;98647.06;;;20.06;100.00
21728;BME280;11026;50.560;17.852;2023-07-28T09:08:31;98650.69;;;20.14;100.00
21728;BME280;11026;50.560;17.852;2023-07-28T09:11:02;98647.50;;;20.29;100.00
21728;BME280;11026;50.560;17.852;2023-07-28T09:13:40;98651.94;;;20.48;100.00
21728;BME280;11026;50.560;17.852;2023-07-28T09:16:20;98657.44;;;20.46;100.00
21728;BME280;11026;50.560;17.852;2023-07-28T09:18:48;98646.75;;;20.36;100.00
21728;BME280;11026;50.560;17.852;2023-07-28T09:21:22;98653.22;;;20.44;100.00
21728;BME280;11026;50.560;17.852;2023-07-28T09:23:51;98654.50;;;20.67;100.00
21728;BME280;11026;50.560;17.852;2023-07-28T09:26:18;98663.31;;;20.59;100.00
21728;BME280;11026;50.560;17.852;2023-07-28T09:28:47;98663.97;;;20.44;100.00
21728;BME280;11026;50.560;17.852;2023-07-28T09:31:29;98663.72;;;20.37;100.00
21728;BME280;11026;50.560;17.852;2023-07-28T09:33:58;98672.56;;;20.47;100.00
21728;BME280;11026;50.560;17.852;2023-07-28T09:36:26;98670.94;;;20.64;100.00
21728;BME280;11026;50.560;17.852;2023-07-28T09:38:54;98668.19;;;20.92;100.00
21728;BME280;11026;50.560;17.852;2023-07-28T09:41:22;98673.78;;;20.80;100.00
21728;BME280;11026;50.560;17.852;2023-07-28T09:43:50;98669.41;;;20.79;100.00
21728;BME280;11026;50.560;17.852;2023-07-28T09:46:18;98669.84;;;20.93;100.00
21728;BME280;11026;50.560;17.852;2023-07-28T09:48:48;98651.59;;;21.22;100.00
21728;BME280;11026;50.560;17.852;2023-07-28T09:51:20;98664.50;;;21.54;100.00
21728;BME280;11026;50.560;17.852;2023-07-28T09:54:05;98652.09;;;21.35;95.84
21728;BME280;11026;50.560;17.852;2023-07-28T09:56:33;98651.44;;;21.68;98.56
21728;BME280;11026;50.560;17.852;2023-07-28T09:59:04;98648.31;;;21.80;96.48
21728;BME280;11026;50.560;17.852;2023-07-28T10:01:39;98650.50;;;22.11;94.70
21728;BME280;11026;50.560;17.852;2023-07-28T10:04:07;98652.72;;;22.16;92.54
21728;BME280;11026;50.560;17.852;2023-07-28T10:06:37;98645.22;;;22.01;86.07
21728;BME280;11026;50.560;17.852;2023-07-28T10:09:05;98644.72;;;21.98;90.76
21728;BME280;11026;50.560;17.852;2023-07-28T10:11:34;98648.50;;;22.13;89.22
21728;BME280;11026;50.560;17.852;2023-07-28T10:14:02;98659.16;;;22.23;86.82
21728;BME280;11026;50.560;17.852;2023-07-28T10:16:37;98651.56;;;22.18;85.42
21728;BME280;11026;50.560;17.852;2023-07-28T10:19:06;98652.31;;;22.53;86.15
21728;BME280;11026;50.560;17.852;2023-07-28T10:21:39;98647.66;;;22.88;85.55
21728;BME280;11026;50.560;17.852;2023-07-28T10:24:11;98652.09;;;23.05;81.66
21728;BME280;11026;50.560;17.852;2023-07-28T10:26:39;98655.97;;;23.35;80.08
21728;BME280;11026;50.560;17.852;2023-07-28T10:29:15;98654.25;;;23.50;79.76
21728;BME280;11026;50.560;17.852;2023-07-28T10:31:53;98657.63;;;23.52;77.93
21728;BME280;11026;50.560;17.852;2023-07-28T10:34:22;98664.06;;;23.11;76.39
21728;BME280;11026;50.560;17.852;2023-07-28T10:36:59;98669.31;;;23.20;77.68
21728;BME280;11026;50.560;17.852;2023-07-28T10:39:28;98649.38;;;23.38;76.04
21728;BME280;11026;50.560;17.852;2023-07-28T10:42:07;98654.28;;;23.26;76.72
21728;BME280;11026;50.560;17.852;2023-07-28T10:44:36;98655.28;;;23.41;76.33
21728;BME280;11026;50.560;17.852;2023-07-28T10:47:08;98660.16;;;23.70;74.48
21728;BME280;11026;50.560;17.852;2023-07-28T10:49:36;98654.69;;;23.87;75.69
21728;BME280;11026;50.560;17.852;2023-07-28T10:52:04;98665.53;;;23.62;73.85
21728;BME280;11026;50.560;17.852;2023-07-28T10:54:31;98663.16;;;23.75;72.12
21728;BME280;11026;50.560;17.852;2023-07-28T10:57:02;98652.69;;;24.28;71.23
21728;BME280;11026;50.560;17.852;2023-07-28T10:59:35;98654.50;;;24.44;68.88
21728;BME280;11026;50.560;17.852;2023-07-28T11:02:02;98670.09;;;24.25;71.63
21728;BME280;11026;50.560;17.852;2023-07-28T11:04:30;98647.66;;;23.77;68.42
21728;BME280;11026;50.560;17.852;2023-07-28T11:06:59;98666.06;;;23.74;70.90
21728;BME280;11026;50.560;17.852;2023-07-28T11:09:27;98665.06;;;23.67;71.87
21728;BME280;11026;50.560;17.852;2023-07-28T11:11:54;98660.50;;;23.51;71.91
21728;BME280;11026;50.560;17.852;2023-07-28T11:14:22;98659.34;;;23.21;72.14
21728;BME280;11026;50.560;17.852;2023-07-28T11:16:50;98643.16;;;23.37;73.50
21728;BME280;11026;50.560;17.852;2023-07-28T11:19:19;98661.84;;;23.55;72.44
21728;BME280;11026;50.560;17.852;2023-07-28T11:21:55;98664.09;;;24.07;70.31
21728;BME280;11026;50.560;17.852;2023-07-28T11:24:22;98653.00;;;23.94;68.02
21728;BME280;11026;50.560;17.852;2023-07-28T11:26:51;98648.81;;;23.83;67.63
21728;BME280;11026;50.560;17.852;2023-07-28T11:29:19;98659.41;;;23.93;68.55
21728;BME280;11026;50.560;17.852;2023-07-28T11:31:55;98661.09;;;23.94;67.50
21728;BME280;11026;50.560;17.852;2023-07-28T11:34:22;98652.78;;;24.12;67.16
21728;BME280;11026;50.560;17.852;2023-07-28T11:36:50;98669.25;;;24.25;64.54
21728;BME280;11026;50.560;17.852;2023-07-28T11:39:19;98638.44;;;24.42;64.35
21728;BME280;11026;50.560;17.852;2023-07-28T11:41:50;98641.31;;;24.72;64.55
21728;BME280;11026;50.560;17.852;2023-07-28T11:44:21;98640.06;;;24.20;63.60
21728;BME280;11026;50.560;17.852;2023-07-28T11:46:48;98640.31;;;24.42;64.19
21728;BME280;11026;50.560;17.852;2023-07-28T11:49:21;98650.47;;;24.40;61.83
21728;BME280;11026;50.560;17.852;2023-07-28T11:51:53;98634.34;;;24.77;62.99
21728;BME280;11026;50.560;17.852;2023-07-28T11:54:24;98633.31;;;24.78;60.80
21728;BME280;11026;50.560;17.852;2023-07-28T11:56:55;98632.72;;;24.68;60.56
21728;BME280;11026;50.560;17.852;2023-07-28T11:59:25;98623.66;;;25.07;61.88
21728;BME280;11026;50.560;17.852;2023-07-28T12:01:58;98625.88;;;24.81;60.37
21728;BME280;11026;50.560;17.852;2023-07-28T12:04:36;98626.91;;;25.02;60.99
21728;BME280;11026;50.560;17.852;2023-07-28T12:07:16;98633.81;;;24.59;60.36
21728;BME280;11026;50.560;17.852;2023-07-28T12:12:26;98630.25;;;25.27;59.08
21728;BME280;11026;50.560;17.852;2023-07-28T12:14:56;98627.75;;;25.41;58.36
21728;BME280;11026;50.560;17.852;2023-07-28T12:17:34;98609.72;;;25.33;58.43
21728;BME280;11026;50.560;17.852;2023-07-28T12:20:06;98606.69;;;25.51;57.94
21728;BME280;11026;50.560;17.852;2023-07-28T12:22:51;98616.03;;;25.63;56.58
21728;BME280;11026;50.560;17.852;2023-07-28T12:25:39;98606.88;;;25.64;57.13
21728;BME280;11026;50.560;17.852;2023-07-28T12:28:07;98612.25;;;25.49;55.48
21728;BME280;11026;50.560;17.852;2023-07-28T12:30:46;98619.94;;;25.61;56.47
21728;BME280;11026;50.560;17.852;2023-07-28T12:33:16;98623.22;;;25.56;55.78
21728;BME280;11026;50.560;17.852;2023-07-28T12:35:46;98614.53;;;25.75;56.82
21728;BME280;11026;50.560;17.852;2023-07-28T12:38:17;98618.25;;;26.34;55.30
21728;BME280;11026;50.560;17.852;2023-07-28T12:40:47;98635.59;;;26.39;55.82
21728;BME280;11026;50.560;17.852;2023-07-28T12:43:18;98616.41;;;26.56;55.17
21728;BME280;11026;50.560;17.852;2023-07-28T12:45:55;98622.63;;;26.50;55.87
21728;BME280;11026;50.560;17.852;2023-07-28T12:48:25;98610.22;;;26.26;54.27
21728;BME280;11026;50.560;17.852;2023-07-28T12:50:59;98624.47;;;25.98;53.92
21728;BME280;11026;50.560;17.852;2023-07-28T12:53:31;98622.50;;;25.92;54.24
21728;BME280;11026;50.560;17.852;2023-07-28T12:55:59;98618.19;;;26.12;54.82
21728;BME280;11026;50.560;17.852;2023-07-28T12:58:27;98626.88;;;26.08;53.32